Time;durP1;ratioP1;P1;durP2;ratioP2;P2;SDS_P1;SDS_P2;PMS_P1;PMS_P2;Temp;Humidity;BMP_temperature;BMP_pressure;BME280_temperature;BME280_humidity;BME280_pressure;Samples;Min_cycle;Max_cycle;Signal;HPM_P1;HPM_P2
2021/05/27 00:01:00;;;;;;;;;;;;;;;8.16;84.92;100256.94;5022593;28;19917;-76
2021/05/27 00:03:26;;;;;;;;;;;;;;;8.12;84.83;100253.44;5022965;28;19919;-75
2021/05/27 00:05:51;;;;;;;;;;;;;;;8.08;85.03;100251.69;5024646;28;19917;-75
2021/05/27 00:08:16;;;;;;;;;;;;;;;8.05;85.29;100255.19;5022474;28;20008;-75
2021/05/27 00:10:41;;;;;;;;;;;;;;;8.03;85.76;100253.44;5025925;28;19917;-76
2021/05/27 00:13:07;;;;;;;;;;;;;;;8.00;85.52;100250.84;5022501;28;19968;-75
2021/05/27 00:15:32;;;;;;;;;;;;;;;7.94;85.71;100249.09;5024923;28;19979;-76
2021/05/27 00:17:58;;;;;;;;;;;;;;;7.92;85.50;100255.22;5023169;28;19939;-75
2021/05/27 00:20:23;;;;;;;;;;;;;;;7.87;85.65;100263.09;5021439;28;19921;-76
2021/05/27 00:22:49;;;;;;;;;;;;;;;7.83;85.89;100261.31;5024583;28;19913;-75
2021/05/27 00:25:14;;;;;;;;;;;;;;;7.81;85.62;100265.72;5022837;28;19913;-75
2021/05/27 00:27:40;;;;;;;;;;;;;;;7.79;86.15;100263.06;5022678;28;20043;-74
2021/05/27 00:30:06;;;;;;;;;;;;;;;7.77;86.25;100262.19;5024586;28;19940;-75
2021/05/27 00:32:32;;;;;;;;;;;;;;;7.78;85.76;100266.59;5022471;28;19914;-75
2021/05/27 00:34:57;;;;;;;;;;;;;;;7.72;86.13;100268.31;5022576;28;19913;-74
2021/05/27 00:37:22;;;;;;;;;;;;;;;7.71;86.34;100274.47;5024575;28;19983;-75
2021/05/27 00:39:48;;;;;;;;;;;;;;;7.66;86.58;100277.06;5022331;28;19913;-75
2021/05/27 00:42:13;;;;;;;;;;;;;;;7.68;86.47;100277.97;5022336;28;19916;-75
2021/05/27 00:44:38;;;;;;;;;;;;;;;7.68;86.00;100273.56;5024307;28;20033;-75
2021/05/27 00:47:08;;;;;;;;;;;;;;;7.67;86.42;100276.19;5037610;28;19920;-75
2021/05/27 00:49:34;;;;;;;;;;;;;;;7.66;86.12;100284.94;5036920;28;20007;-74
2021/05/27 00:51:59;;;;;;;;;;;;;;;7.66;86.34;100288.44;5047740;28;20002;-75
2021/05/27 00:54:25;;;;;;;;;;;;;;;7.64;86.54;100289.31;5038304;28;19920;-75
2021/05/27 00:56:52;;;;;;;;;;;;;;;7.63;86.46;100279.69;5024041;28;19919;-75
2021/05/27 00:59:18;;;;;;;;;;;;;;;7.61;86.55;100284.06;5021437;28;19913;-75
2021/05/27 01:01:44;;;;;;;;;;;;;;;7.63;86.45;100284.94;5022627;28;19956;-75
2021/05/27 01:04:09;;;;;;;;;;;;;;;7.61;86.21;100284.06;5023720;28;20023;-75
2021/05/27 01:06:35;;;;;;;;;;;;;;;7.61;86.38;100290.19;5036596;28;19913;-75
2021/05/27 01:09:00;;;;;;;;;;;;;;;7.61;86.42;100286.69;5022819;28;19924;-75
2021/05/27 01:11:28;;;;;;;;;;;;;;;7.61;85.87;100295.44;5046280;28;20294;-75
2021/05/27 01:13:56;;;;;;;;;;;;;;;7.61;86.05;100291.94;5038747;28;19913;-76
2021/05/27 01:16:22;;;;;;;;;;;;;;;7.59;86.11;100299.81;5022831;28;19924;-75
2021/05/27 01:18:48;;;;;;;;;;;;;;;7.56;86.38;100291.06;5021103;28;20292;-76
2021/05/27 01:21:14;;;;;;;;;;;;;;;7.55;86.11;100297.19;5021468;28;19923;-75
2021/05/27 01:23:39;;;;;;;;;;;;;;;7.54;86.47;100293.66;5029567;28;19917;-75
2021/05/27 01:26:06;;;;;;;;;;;;;;;7.54;86.45;100305.94;5041539;28;19917;-75
2021/05/27 01:28:33;;;;;;;;;;;;;;;7.54;86.38;100305.94;5021472;28;19913;-75
2021/05/27 01:30:59;;;;;;;;;;;;;;;7.53;86.15;100306.81;5021442;28;19921;-75
2021/05/27 01:33:33;;;;;;;;;;;;;;;7.52;86.53;100302.41;5026110;28;19914;-75
2021/05/27 01:36:00;;;;;;;;;;;;;;;7.52;86.69;100303.31;5028158;28;19962;-75
2021/05/27 01:38:30;;;;;;;;;;;;;;;7.52;86.37;100303.31;5020829;28;19913;-75
2021/05/27 01:40:57;;;;;;;;;;;;;;;7.50;86.51;100302.44;5021946;28;19913;-75
2021/05/27 01:43:23;;;;;;;;;;;;;;;7.49;85.85;100305.91;5023215;28;19952;-75
2021/05/27 01:45:51;;;;;;;;;;;;;;;7.45;86.42;100310.28;5042497;28;19928;-75
2021/05/27 01:48:16;;;;;;;;;;;;;;;7.50;86.16;100319.94;5021361;28;19913;-75
2021/05/27 01:50:42;;;;;;;;;;;;;;;7.49;86.52;100315.53;5022899;28;19940;-75
2021/05/27 01:53:07;;;;;;;;;;;;;;;7.46;85.77;100317.28;5021066;28;19920;-75
2021/05/27 01:55:33;;;;;;;;;;;;;;;7.47;85.62;100319.06;5021518;28;19914;-75
2021/05/27 01:57:59;;;;;;;;;;;;;;;7.48;85.99;100319.91;5044695;28;19971;-75
2021/05/27 02:00:29;;;;;;;;;;;;;;;7.51;86.63;100322.56;5037935;28;20007;-75
2021/05/27 02:02:56;;;;;;;;;;;;;;;7.59;86.45;100315.56;5045523;28;19943;-75
2021/05/27 02:05:25;;;;;;;;;;;;;;;7.67;86.24;100315.59;5027216;28;19924;-75
2021/05/27 02:07:51;;;;;;;;;;;;;;;7.73;86.29;100317.34;5021254;28;20307;-75
2021/05/27 02:10:26;;;;;;;;;;;;;;;7.80;86.18;100321.75;5038302;28;20000;-75
2021/05/27 02:12:54;;;;;;;;;;;;;;;7.85;85.36;100325.25;5045095;28;20326;-75
2021/05/27 02:15:21;;;;;;;;;;;;;;;7.88;85.69;100326.13;5029245;28;20080;-75
2021/05/27 02:17:46;;;;;;;;;;;;;;;7.83;85.42;100319.13;5042760;28;19942;-75
2021/05/27 02:20:11;;;;;;;;;;;;;;;7.83;85.02;100320.03;5030042;28;19913;-75
2021/05/27 02:22:37;;;;;;;;;;;;;;;7.78;85.29;100327.03;5035203;28;20292;-75
2021/05/27 02:25:12;;;;;;;;;;;;;;;7.80;85.02;100333.13;5035925;28;19989;-75
2021/05/27 02:27:42;;;;;;;;;;;;;;;7.77;85.07;100324.38;5024598;28;19917;-75
2021/05/27 02:30:11;;;;;;;;;;;;;;;7.72;85.13;100329.59;5041230;28;19998;-75
2021/05/27 02:32:39;;;;;;;;;;;;;;;7.73;84.95;100331.38;5022702;28;19913;-75
2021/05/27 02:35:05;;;;;;;;;;;;;;;7.74;84.55;100333.13;5041198;28;20063;-75
2021/05/27 02:37:30;;;;;;;;;;;;;;;7.73;84.72;100333.09;5041684;28;19935;-75
2021/05/27 02:39:56;;;;;;;;;;;;;;;7.77;85.32;100333.13;5039320;28;20016;-75
2021/05/27 02:42:22;;;;;;;;;;;;;;;7.86;85.18;100330.53;5025460;28;20035;-74
2021/05/27 02:44:50;;;;;;;;;;;;;;;7.92;85.01;100336.69;5032804;28;19928;-75
2021/05/27 02:47:15;;;;;;;;;;;;;;;7.96;84.55;100334.03;5026209;28;20367;-75
2021/05/27 02:49:42;;;;;;;;;;;;;;;7.97;84.42;100330.53;5025178;28;19920;-75
2021/05/27 02:52:07;;;;;;;;;;;;;;;8.01;84.48;100334.03;5040209;28;20368;-75
2021/05/27 02:54:34;;;;;;;;;;;;;;;8.13;83.99;100329.69;5042342;28;20269;-75
2021/05/27 02:57:00;;;;;;;;;;;;;;;8.26;83.56;100330.56;5040369;28;19986;-74
2021/05/27 02:59:26;;;;;;;;;;;;;;;8.35;83.50;100325.28;5032382;28;19943;-75
2021/05/27 03:01:52;;;;;;;;;;;;;;;8.41;83.47;100328.81;5025914;28;20397;-75
2021/05/27 03:04:17;;;;;;;;;;;;;;;8.53;82.22;100323.56;5047003;28;20004;-75
2021/05/27 03:06:43;;;;;;;;;;;;;;;8.63;82.18;100319.16;5033440;28;19913;-75
2021/05/27 03:09:09;;;;;;;;;;;;;;;8.68;81.77;100318.28;5024103;28;19967;-75
2021/05/27 03:11:35;;;;;;;;;;;;;;;8.80;81.45;100321.75;5039538;28;19919;-75
2021/05/27 03:14:03;;;;;;;;;;;;;;;8.87;81.74;100323.50;5026013;28;19920;-75
2021/05/27 03:16:41;;;;;;;;;;;;;;;8.95;81.07;100321.72;5022991;28;20437;-75
2021/05/27 03:19:06;;;;;;;;;;;;;;;8.99;80.57;100320.84;5028457;28;19916;-75
2021/05/27 03:21:32;;;;;;;;;;;;;;;9.03;80.82;100325.19;5024116;28;20295;-75
2021/05/27 03:23:58;;;;;;;;;;;;;;;9.08;80.44;100328.69;5038891;28;19921;-75
2021/05/27 03:26:23;;;;;;;;;;;;;;;9.09;80.13;100335.72;5025839;28;20374;-75
2021/05/27 03:28:50;;;;;;;;;;;;;;;9.14;80.03;100328.69;5045826;28;19913;-75
2021/05/27 03:31:16;;;;;;;;;;;;;;;9.23;79.80;100332.19;5026664;28;19913;-75
2021/05/27 03:33:43;;;;;;;;;;;;;;;9.25;79.32;100327.75;5042121;28;19909;-75
2021/05/27 03:36:09;;;;;;;;;;;;;;;9.21;79.69;100327.78;5039999;28;19920;-75
2021/05/27 03:38:36;;;;;;;;;;;;;;;9.21;79.80;100333.03;5024305;28;20391;-75
2021/05/27 03:41:02;;;;;;;;;;;;;;;9.31;79.55;100333.88;5023108;28;19999;-75
2021/05/27 03:43:31;;;;;;;;;;;;;;;9.35;79.20;100340.91;5023377;28;20502;-75
2021/05/27 03:45:58;;;;;;;;;;;;;;;9.44;78.48;100338.22;5032357;28;19917;-75
2021/05/27 03:48:23;;;;;;;;;;;;;;;9.52;77.85;100329.41;5024714;28;19999;-76
2021/05/27 03:50:49;;;;;;;;;;;;;;;9.55;78.05;100338.16;5040011;28;19956;-76
2021/05/27 03:53:19;;;;;;;;;;;;;;;9.61;77.90;100332.84;5041640;28;19913;-76
2021/05/27 03:55:54;;;;;;;;;;;;;;;9.55;77.31;100330.25;5038148;28;19920;-75
2021/05/27 04:01:03;;;;;;;;;;;;;;;9.50;76.77;100339.06;5040459;28;19913;-75
2021/05/27 04:09:13;;;;;;;;;;;;;;;9.47;76.22;100352.25;5024629;28;19952;-76
2021/05/27 04:11:39;;;;;;;;;;;;;;;9.55;75.80;100350.47;5023037;28;19924;-76
2021/05/27 04:14:04;;;;;;;;;;;;;;;9.61;76.04;100356.56;5021626;28;20343;-76
2021/05/27 04:16:29;;;;;;;;;;;;;;;9.69;76.46;100348.63;5025120;28;20003;-75
2021/05/27 04:18:54;;;;;;;;;;;;;;;9.77;75.42;100354.75;5023191;28;20005;-75
2021/05/27 04:21:20;;;;;;;;;;;;;;;9.83;75.60;100356.47;5032558;28;19916;-76
2021/05/27 04:23:45;;;;;;;;;;;;;;;9.88;74.87;100360.81;5029222;28;19917;-75
2021/05/27 04:26:11;;;;;;;;;;;;;;;9.96;74.34;100362.53;5024135;28;19921;-76
2021/05/27 04:28:37;;;;;;;;;;;;;;;10.00;73.95;100366.91;5039644;28;19920;-76
2021/05/27 04:31:10;;;;;;;;;;;;;;;10.08;73.75;100373.84;5022074;28;19913;-77
2021/05/27 04:33:37;;;;;;;;;;;;;;;10.04;73.82;100381.81;5029811;28;19943;-76
2021/05/27 04:36:02;;;;;;;;;;;;;;;10.10;74.41;100376.50;5046119;28;19913;-76
2021/05/27 04:38:27;;;;;;;;;;;;;;;10.15;73.74;100379.13;5037694;28;19963;-77
2021/05/27 04:40:53;;;;;;;;;;;;;;;10.24;73.64;100377.28;5022667;28;19914;-76
2021/05/27 04:43:18;;;;;;;;;;;;;;;10.28;72.88;100376.41;5024206;28;19913;-76
2021/05/27 04:45:44;;;;;;;;;;;;;;;10.31;72.97;100383.41;5022183;28;20501;-76
2021/05/27 04:48:10;;;;;;;;;;;;;;;10.31;72.86;100378.13;5038471;28;19924;-76
2021/05/27 04:50:40;;;;;;;;;;;;;;;10.36;73.26;100383.38;5039150;28;20271;-76
2021/05/27 04:53:05;;;;;;;;;;;;;;;10.35;72.84;100386.91;5022401;28;20398;-76
2021/05/27 04:55:31;;;;;;;;;;;;;;;10.40;72.55;100382.47;5022502;28;19917;-77
2021/05/27 04:57:56;;;;;;;;;;;;;;;10.48;72.60;100378.91;5024145;28;19913;-76
2021/05/27 05:00:22;;;;;;;;;;;;;;;10.43;72.16;100380.69;5025418;28;19970;-77
2021/05/27 05:02:48;;;;;;;;;;;;;;;10.49;71.42;100385.91;5031309;28;20024;-77
2021/05/27 05:05:14;;;;;;;;;;;;;;;10.57;71.47;100387.63;5025609;28;20343;-77
2021/05/27 05:07:40;;;;;;;;;;;;;;;10.63;71.66;100388.44;5028638;28;19917;-77
2021/05/27 05:10:06;;;;;;;;;;;;;;;10.66;72.15;100387.53;5025163;28;20298;-77
2021/05/27 05:12:44;;;;;;;;;;;;;;;10.89;71.49;100384.69;5020865;28;19917;-77
2021/05/27 05:15:10;;;;;;;;;;;;;;;11.01;70.91;100383.69;5021288;28;19920;-77
2021/05/27 05:17:35;;;;;;;;;;;;;;;10.94;70.54;100393.44;5040817;28;19913;-77
2021/05/27 05:20:00;;;;;;;;;;;;;;;11.03;70.89;100387.16;5023615;28;19975;-76
2021/05/27 05:22:25;;;;;;;;;;;;;;;11.04;70.16;100394.22;5038604;28;19916;-76
2021/05/27 05:24:51;;;;;;;;;;;;;;;11.12;70.76;100393.25;5021124;28;20019;-76
2021/05/27 05:27:16;;;;;;;;;;;;;;;11.19;70.12;100394.06;5022407;28;20399;-76
2021/05/27 05:29:41;;;;;;;;;;;;;;;11.24;69.97;100394.00;5023180;28;20007;-76
2021/05/27 05:32:06;;;;;;;;;;;;;;;11.35;69.29;100390.34;5026465;28;19912;-76
2021/05/27 05:34:32;;;;;;;;;;;;;;;11.48;68.44;100390.22;5025727;28;19976;-76
2021/05/27 05:36:57;;;;;;;;;;;;;;;11.51;69.62;100400.75;5028907;28;19913;-76
2021/05/27 05:39:22;;;;;;;;;;;;;;;11.57;68.98;100396.25;5020710;28;19923;-76
2021/05/27 05:41:47;;;;;;;;;;;;;;;11.65;67.84;100390.88;5021863;28;20291;-76
2021/05/27 05:44:13;;;;;;;;;;;;;;;11.64;68.66;100397.06;5022019;28;19952;-76
2021/05/27 05:46:38;;;;;;;;;;;;;;;11.71;68.43;100392.53;5035975;28;19920;-76
2021/05/27 05:49:04;;;;;;;;;;;;;;;11.71;67.70;100392.53;5022504;28;19913;-76
2021/05/27 05:51:29;;;;;;;;;;;;;;;11.79;68.01;100396.84;5021920;28;19913;-76
2021/05/27 05:53:54;;;;;;;;;;;;;;;11.95;67.51;100396.69;5035872;28;20403;-77
2021/05/27 05:56:20;;;;;;;;;;;;;;;11.95;67.30;100405.50;5022777;28;20290;-76
2021/05/27 05:58:45;;;;;;;;;;;;;;;12.04;67.30;100407.13;5021981;28;19917;-76
2021/05/27 06:01:10;;;;;;;;;;;;;;;12.17;67.39;100413.13;5019970;28;20037;-76
2021/05/27 06:03:36;;;;;;;;;;;;;;;12.16;66.80;100399.03;5022293;28;20295;-74
2021/05/27 06:06:20;;;;;;;;;;;;;;;12.07;66.48;100405.31;5023269;28;19998;-76
2021/05/27 06:08:45;;;;;;;;;;;;;;;12.05;66.45;100398.28;5021735;28;20530;-76
2021/05/27 06:11:10;;;;;;;;;;;;;;;12.26;66.54;100407.66;5019966;28;20431;-75
2021/05/27 06:13:35;;;;;;;;;;;;;;;12.51;65.92;100408.19;5022598;28;19970;-76
2021/05/27 06:16:01;;;;;;;;;;;;;;;12.71;65.54;100402.56;5020931;28;19917;-75
2021/05/27 06:18:26;;;;;;;;;;;;;;;12.71;64.51;100400.78;5035666;28;19995;-75
2021/05/27 06:21:20;;;;;;;;;;;;;;;12.54;64.88;100405.47;5046066;28;19920;-74
2021/05/27 06:23:46;;;;;;;;;;;;;;;12.58;65.19;100412.50;5021191;28;19913;-76
2021/05/27 06:26:11;;;;;;;;;;;;;;;12.59;64.87;100411.56;5024815;28;20063;-75
2021/05/27 06:28:37;;;;;;;;;;;;;;;12.60;64.21;100408.03;5029988;28;19913;-74
2021/05/27 06:31:02;;;;;;;;;;;;;;;12.70;63.80;100411.41;5036874;28;19956;-74
2021/05/27 06:33:28;;;;;;;;;;;;;;;12.79;64.53;100413.03;5037631;28;19913;-75
2021/05/27 06:35:53;;;;;;;;;;;;;;;12.93;63.61;100403.06;5035425;28;20439;-74
2021/05/27 06:38:18;;;;;;;;;;;;;;;12.80;63.93;100409.47;5021851;28;19916;-75
2021/05/27 06:40:44;;;;;;;;;;;;;;;12.70;63.77;100414.91;5022141;28;20330;-75
2021/05/27 06:43:09;;;;;;;;;;;;;;;12.51;65.02;100418.78;5019782;28;19956;-75
2021/05/27 06:45:34;;;;;;;;;;;;;;;12.52;65.62;100420.50;5037142;28;20007;-75
2021/05/27 06:48:00;;;;;;;;;;;;;;;12.63;64.35;100413.28;5022553;28;19913;-75
2021/05/27 06:50:36;;;;;;;;;;;;;;;12.65;64.19;100429.13;5019935;28;19960;-74
2021/05/27 06:53:06;;;;;;;;;;;;;;;12.60;64.56;100417.72;5020401;28;19923;-75
2021/05/27 06:55:31;;;;;;;;;;;;;;;12.53;65.11;100416.97;5022683;28;20442;-74
2021/05/27 06:57:57;;;;;;;;;;;;;;;12.55;64.09;100423.13;5021442;28;19909;-75
2021/05/27 07:00:23;;;;;;;;;;;;;;;12.63;64.46;100423.00;5019884;28;20339;-75
2021/05/27 07:02:48;;;;;;;;;;;;;;;12.64;64.68;100420.31;5022269;28;19967;-75
2021/05/27 07:05:14;;;;;;;;;;;;;;;12.55;65.43;100415.19;5016720;28;20392;-75
2021/05/27 07:07:39;;;;;;;;;;;;;;;12.67;65.16;100412.31;5022123;28;19919;-74
2021/05/27 07:10:05;;;;;;;;;;;;;;;12.72;64.81;100413.13;5025341;28;20375;-75
2021/05/27 07:12:32;;;;;;;;;;;;;;;12.97;64.90;100411.81;5036088;28;19917;-75
2021/05/27 07:14:57;;;;;;;;;;;;;;;13.05;64.10;100410.78;5023063;28;19913;-74
2021/05/27 07:17:23;;;;;;;;;;;;;;;13.08;63.40;100408.09;5024874;28;19939;-75
2021/05/27 07:19:49;;;;;;;;;;;;;;;13.19;63.20;100407.00;5024645;28;19920;-75
2021/05/27 07:22:14;;;;;;;;;;;;;;;13.42;63.26;100404.81;5023201;28;20388;-75
2021/05/27 07:24:39;;;;;;;;;;;;;;;13.41;62.95;100411.00;5024548;28;20019;-75
2021/05/27 07:27:04;;;;;;;;;;;;;;;13.42;62.75;100399.53;5039654;28;19913;-75
2021/05/27 07:29:30;;;;;;;;;;;;;;;13.44;62.81;100402.13;5023484;28;20338;-74
2021/05/27 07:31:55;;;;;;;;;;;;;;;13.70;61.93;100401.59;5025453;28;19962;-75
2021/05/27 07:34:20;;;;;;;;;;;;;;;13.68;61.02;100403.44;5024274;28;19943;-75
2021/05/27 07:36:46;;;;;;;;;;;;;;;13.74;60.96;100401.50;5023605;28;19921;-75
2021/05/27 07:39:11;;;;;;;;;;;;;;;13.79;61.04;100409.38;5049535;28;19913;-75
2021/05/27 07:41:36;;;;;;;;;;;;;;;13.79;61.22;100406.72;5024440;28;19913;-74
2021/05/27 07:44:02;;;;;;;;;;;;;;;14.00;61.09;100402.72;5025058;28;19919;-75
2021/05/27 07:46:27;;;;;;;;;;;;;;;13.99;60.66;100406.25;5023058;28;20292;-75
2021/05/27 07:48:54;;;;;;;;;;;;;;;14.27;60.12;100406.53;5024721;28;19925;-74
2021/05/27 07:51:20;;;;;;;;;;;;;;;14.17;59.63;100412.94;5024815;28;19967;-75
2021/05/27 07:53:45;;;;;;;;;;;;;;;13.95;60.89;100404.59;5022764;28;20384;-75
2021/05/27 07:56:11;;;;;;;;;;;;;;;13.95;60.09;100404.59;5040540;28;19920;-75
2021/05/27 07:58:36;;;;;;;;;;;;;;;13.90;60.36;100402.03;5026518;28;19971;-74
2021/05/27 08:01:04;;;;;;;;;;;;;;;14.13;59.93;100401.53;5022565;28;19995;-75
2021/05/27 08:03:29;;;;;;;;;;;;;;;14.12;59.40;100412.16;5039441;28;19917;-75
2021/05/27 08:05:54;;;;;;;;;;;;;;;14.40;59.87;100413.28;5024677;28;20019;-75
2021/05/27 08:08:19;;;;;;;;;;;;;;;14.67;59.01;100416.22;5022657;28;19972;-75
2021/05/27 08:10:46;;;;;;;;;;;;;;;14.67;58.72;100417.09;5024197;28;20380;-74
2021/05/27 08:13:12;;;;;;;;;;;;;;;14.82;57.99;100415.81;5024291;28;20383;-75
2021/05/27 08:15:37;;;;;;;;;;;;;;;15.09;58.06;100427.53;5022460;28;19920;-74
2021/05/27 08:18:02;;;;;;;;;;;;;;;14.97;57.40;100419.03;5024206;28;20265;-75
2021/05/27 08:20:28;;;;;;;;;;;;;;;14.97;57.00;100422.53;5024197;28;19995;-75
2021/05/27 08:22:53;;;;;;;;;;;;;;;14.90;56.87;100410.31;5021930;28;20372;-75
2021/05/27 08:25:19;;;;;;;;;;;;;;;14.64;57.78;100416.28;5034056;28;19917;-75
2021/05/27 08:27:44;;;;;;;;;;;;;;;14.41;58.68;100424.81;5024100;28;19913;-75
2021/05/27 08:30:09;;;;;;;;;;;;;;;14.38;59.21;100420.44;5021948;28;19913;-74
2021/05/27 08:32:35;;;;;;;;;;;;;;;14.62;59.65;100428.75;5024128;28;20269;-75
2021/05/27 08:35:01;;;;;;;;;;;;;;;14.56;58.41;100426.22;5023788;28;20286;-74
2021/05/27 08:37:26;;;;;;;;;;;;;;;14.69;59.32;100427.69;5022045;28;20008;-75
2021/05/27 08:39:51;;;;;;;;;;;;;;;14.42;59.13;100424.75;5023970;28;20023;-74
2021/05/27 08:42:17;;;;;;;;;;;;;;;14.50;59.22;100429.88;5023201;28;19917;-75
2021/05/27 08:44:45;;;;;;;;;;;;;;;14.64;59.00;100426.91;5037170;28;19925;-74
2021/05/27 08:47:10;;;;;;;;;;;;;;;14.43;58.53;100429.13;5023857;28;19929;-75
2021/05/27 08:49:35;;;;;;;;;;;;;;;14.25;59.41;100429.56;5023325;28;19917;-74
2021/05/27 08:52:01;;;;;;;;;;;;;;;14.28;58.67;100437.50;5021529;28;20433;-75
2021/05/27 08:54:26;;;;;;;;;;;;;;;14.39;58.56;100432.78;5023824;28;19913;-75
2021/05/27 08:56:51;;;;;;;;;;;;;;;14.39;59.13;100435.44;5023156;28;19952;-75
2021/05/27 08:59:16;;;;;;;;;;;;;;;14.45;59.09;100429.97;5021617;28;20331;-75
2021/05/27 09:02:00;;;;;;;;;;;;;;;14.66;58.34;100443.69;5023696;28;19959;-74
2021/05/27 09:04:26;;;;;;;;;;;;;;;14.89;56.64;100444.00;5039376;28;19917;-74
2021/05/27 09:06:51;;;;;;;;;;;;;;;14.86;57.41;100435.25;5023172;28;19913;-75
2021/05/27 09:09:16;;;;;;;;;;;;;;;15.06;56.74;100440.91;5021303;28;19917;-75
2021/05/27 09:11:45;;;;;;;;;;;;;;;14.92;57.45;100436.88;5023866;28;19928;-75
2021/05/27 09:14:10;;;;;;;;;;;;;;;14.99;56.56;100433.16;5028705;28;20385;-75
2021/05/27 09:16:37;;;;;;;;;;;;;;;15.28;56.80;100435.91;5024691;28;20003;-75
2021/05/27 09:19:11;;;;;;;;;;;;;;;15.62;56.41;100442.94;5021758;28;20004;-75
2021/05/27 09:21:37;;;;;;;;;;;;;;;15.75;54.74;100433.72;5020831;28;20327;-74
2021/05/27 09:24:03;;;;;;;;;;;;;;;15.75;55.08;100433.72;5022082;28;19999;-75
2021/05/27 09:26:28;;;;;;;;;;;;;;;16.18;55.37;100428.91;5022926;28;20431;-75
2021/05/27 09:29:07;;;;;;;;;;;;;;;16.50;54.40;100435.00;5036935;28;20571;-75
2021/05/27 09:31:33;;;;;;;;;;;;;;;16.92;52.92;100432.75;5022300;28;19913;-75
2021/05/27 09:34:02;;;;;;;;;;;;;;;16.89;52.48;100427.50;5024456;28;20294;-75
2021/05/27 09:36:27;;;;;;;;;;;;;;;17.12;52.35;100434.72;5023386;28;19913;-75
2021/05/27 09:38:54;;;;;;;;;;;;;;;17.13;50.76;100427.59;5023523;28;20355;-74
2021/05/27 09:41:23;;;;;;;;;;;;;;;16.89;50.38;100418.66;5023272;28;20442;-75
2021/05/27 09:43:49;;;;;;;;;;;;;;;16.88;51.47;100423.13;5022770;28;19913;-75
2021/05/27 09:46:15;;;;;;;;;;;;;;;16.80;52.11;100419.84;5020745;28;19921;-74
2021/05/27 09:48:40;;;;;;;;;;;;;;;16.61;53.94;100411.53;5022556;28;20387;-75
2021/05/27 09:51:07;;;;;;;;;;;;;;;16.34;52.50;100427.50;5022702;28;19917;-75
2021/05/27 09:53:33;;;;;;;;;;;;;;;15.51;57.22;100468.94;5021545;28;19944;-75
2021/05/27 09:55:59;;;;;;;;;;;;;;;13.85;61.66;100475.53;5023359;28;19963;-75
2021/05/27 09:58:25;;;;;;;;;;;;;;;12.68;67.64;100488.22;5022759;28;19916;-75
2021/05/27 10:00:51;;;;;;;;;;;;;;;12.02;70.96;100498.84;5020537;28;19920;-74
2021/05/27 10:03:27;;;;;;;;;;;;;;;11.66;72.33;100482.50;5037363;28;20319;-74
2021/05/27 10:05:52;;;;;;;;;;;;;;;11.39;72.77;100497.75;5024319;28;19917;-74
2021/05/27 10:08:20;;;;;;;;;;;;;;;11.25;74.17;100496.16;5023219;28;19913;-74
2021/05/27 10:10:45;;;;;;;;;;;;;;;11.08;72.38;100497.19;5027390;28;19971;-73
2021/05/27 10:13:13;;;;;;;;;;;;;;;10.91;73.16;100510.50;5021688;28;19917;-74
2021/05/27 10:15:38;;;;;;;;;;;;;;;10.80;73.59;100509.72;5044004;28;19996;-74
2021/05/27 10:18:04;;;;;;;;;;;;;;;10.64;74.72;100535.34;5024038;28;19917;-73
2021/05/27 10:20:31;;;;;;;;;;;;;;;10.42;78.44;100521.41;5026729;28;19935;-73
2021/05/27 10:22:57;;;;;;;;;;;;;;;10.38;78.02;100532.00;5036459;28;19913;-73
2021/05/27 10:25:22;;;;;;;;;;;;;;;10.30;79.16;100538.19;5025052;28;19921;-73
2021/05/27 10:27:50;;;;;;;;;;;;;;;10.13;80.38;100547.00;5041517;28;19940;-73
2021/05/27 10:30:15;;;;;;;;;;;;;;;9.98;80.33;100553.22;5023828;28;19913;-72
2021/05/27 10:32:46;;;;;;;;;;;;;;;9.98;82.94;100535.66;5019954;28;19924;-73
2021/05/27 10:35:12;;;;;;;;;;;;;;;10.14;81.11;100536.47;5021601;28;19924;-73
2021/05/27 10:37:37;;;;;;;;;;;;;;;10.24;80.17;100527.63;5022772;28;19913;-72
2021/05/27 10:40:23;;;;;;;;;;;;;;;10.45;79.77;100541.63;5019989;28;19909;-74
2021/05/27 10:43:18;;;;;;;;;;;;;;;10.50;79.43;100539.81;5022421;28;20387;-74
2021/05/27 10:46:01;;;;;;;;;;;;;;;10.45;78.18;100542.50;5021401;28;19917;-74
2021/05/27 10:48:27;;;;;;;;;;;;;;;10.50;81.62;100540.69;5024101;28;19916;-73
2021/05/27 10:50:57;;;;;;;;;;;;;;;10.84;79.45;100540.47;5026395;28;19912;-72
2021/05/27 10:53:36;;;;;;;;;;;;;;;11.03;79.54;100529.78;5039510;28;20384;-73
2021/05/27 10:56:03;;;;;;;;;;;;;;;11.41;79.46;100532.09;5027008;28;19920;-72
2021/05/27 10:58:47;;;;;;;;;;;;;;;11.78;77.95;100534.34;5024779;28;19952;-73
2021/05/27 11:01:13;;;;;;;;;;;;;;;11.82;76.90;100531.66;5026192;28;19986;-73
2021/05/27 11:03:43;;;;;;;;;;;;;;;11.91;76.87;100532.50;5026081;28;19923;-74
2021/05/27 11:06:27;;;;;;;;;;;;;;;12.08;75.60;100533.19;5024585;28;19921;-72
2021/05/27 11:09:16;;;;;;;;;;;;;;;12.37;74.76;100526.63;5026451;28;20295;-73
2021/05/27 11:11:45;;;;;;;;;;;;;;;12.75;72.96;100527.84;5026023;28;19928;-74
2021/05/27 11:14:19;;;;;;;;;;;;;;;13.11;72.59;100527.25;5041466;28;19920;-72
2021/05/27 11:17:03;;;;;;;;;;;;;;;13.09;71.44;100533.47;5024657;28;20389;-74
2021/05/27 11:19:59;;;;;;;;;;;;;;;13.13;70.86;100527.25;5025889;28;19945;-74
2021/05/27 11:25:11;;;;;;;;;;;;;;;13.28;70.03;100534.97;5030076;28;19919;-73
2021/05/27 11:27:42;;;;;;;;;;;;;;;13.27;70.40;100532.34;5022663;28;19960;-72
2021/05/27 11:30:26;;;;;;;;;;;;;;;13.28;71.16;100528.78;5025652;28;19967;-74
2021/05/27 11:32:59;;;;;;;;;;;;;;;13.44;72.42;100535.56;5025419;28;19917;-74
2021/05/27 11:35:26;;;;;;;;;;;;;;;13.94;69.48;100530.22;5025063;28;19931;-75
2021/05/27 11:37:52;;;;;;;;;;;;;;;14.17;67.71;100529.72;5023239;28;19924;-74
2021/05/27 11:40:20;;;;;;;;;;;;;;;14.50;65.67;100525.47;5024841;28;20371;-74
2021/05/27 11:42:52;;;;;;;;;;;;;;;14.71;66.29;100521.50;5025129;28;19920;-74
2021/05/27 11:45:18;;;;;;;;;;;;;;;15.18;64.58;100526.56;5025517;28;19917;-74
2021/05/27 11:48:06;;;;;;;;;;;;;;;15.37;63.50;100516.34;5025161;28;19977;-74
2021/05/27 11:50:31;;;;;;;;;;;;;;;15.30;61.93;100518.25;5025454;28;19917;-74
2021/05/27 11:52:57;;;;;;;;;;;;;;;15.61;63.22;100523.66;5022833;28;20358;-75
2021/05/27 11:55:23;;;;;;;;;;;;;;;15.45;62.87;100522.31;5024062;28;19916;-74
2021/05/27 11:57:48;;;;;;;;;;;;;;;15.21;63.02;100521.16;5025102;28;19920;-74
2021/05/27 12:00:15;;;;;;;;;;;;;;;14.97;62.45;100530.63;5039170;28;20011;-74
2021/05/27 12:02:51;;;;;;;;;;;;;;;14.74;63.33;100529.38;5031518;28;19969;-74
2021/05/27 12:05:26;;;;;;;;;;;;;;;14.45;63.04;100533.53;5031309;28;19917;-75
2021/05/27 12:07:57;;;;;;;;;;;;;;;14.19;65.49;100535.88;5034566;28;19918;-74
2021/05/27 12:10:23;;;;;;;;;;;;;;;14.29;65.02;100534.78;5050775;28;19914;-74
2021/05/27 12:12:48;;;;;;;;;;;;;;;14.31;63.42;100538.28;5028205;28;20421;-75
2021/05/27 12:15:15;;;;;;;;;;;;;;;14.30;64.11;100533.00;5025327;28;20391;-73
2021/05/27 12:17:44;;;;;;;;;;;;;;;14.04;64.22;100534.41;5026143;28;19920;-75
2021/05/27 12:20:13;;;;;;;;;;;;;;;13.62;65.25;100544.09;5022438;28;20406;-74
2021/05/27 12:22:44;;;;;;;;;;;;;;;13.04;68.10;100545.94;5024099;28;19913;-74
2021/05/27 12:25:10;;;;;;;;;;;;;;;12.68;70.28;100538.53;5024767;28;19932;-74
2021/05/27 12:27:39;;;;;;;;;;;;;;;12.44;71.50;100534.47;5027021;28;19913;-74
2021/05/27 12:30:05;;;;;;;;;;;;;;;12.43;73.11;100548.59;5027991;28;19916;-74
2021/05/27 12:32:30;;;;;;;;;;;;;;;12.47;73.62;100549.41;5021847;28;20402;-74
2021/05/27 12:34:55;;;;;;;;;;;;;;;12.34;72.62;100547.81;5027110;28;19919;-75
2021/05/27 12:37:35;;;;;;;;;;;;;;;12.32;71.93;100544.34;5022941;28;19917;-74
2021/05/27 12:40:04;;;;;;;;;;;;;;;12.23;72.73;100546.19;5024664;28;19916;-73
2021/05/27 12:42:36;;;;;;;;;;;;;;;12.28;73.71;100546.13;5024503;28;20462;-75
2021/05/27 12:45:20;;;;;;;;;;;;;;;12.31;72.23;100553.16;5023212;28;19964;-76
2021/05/27 12:48:01;;;;;;;;;;;;;;;12.14;73.55;100556.03;5024891;28;19967;-74
2021/05/27 12:50:26;;;;;;;;;;;;;;;12.01;73.93;100577.31;5024248;28;20379;-72
2021/05/27 12:52:51;;;;;;;;;;;;;;;11.89;75.08;100581.88;5035708;28;19919;-74